Terminal Aerodrome Forecast
Issued by NWS Sterling, VA

Current Version | Previous Version | Graphics & Text | Print | Product List | Glossary On
Versions: 1 2 3 4 5 6 7 8 9 10 11 12 13 14
005
FTUS41 KLWX 191722
TAFMRB
TAF
KMRB 191722Z 1918/2018 29020G34KT P6SM BKN050
     FM192200 29016G24KT P6SM BKN050 BKN080
     FM200000 28011KT P6SM BKN050 BKN140
     FM200500 28010KT P6SM FEW050 SCT200=

USA.gov is the U.S. government's official web portal to all federal, state and local government web resources and services.